sensor_id;sensor_type;location;lat;lon;timestamp;pressure;altitude;pressure_sealevel;temperature;humidity
2875;BME280;1445;52.600;13.328;2023-03-17T00:00:05;101088.81;;;5.64;100.00
2875;BME280;1445;52.600;13.328;2023-03-17T00:02:31;101094.53;;;5.62;100.00
2875;BME280;1445;52.600;13.328;2023-03-17T00:04:56;101100.78;;;5.58;100.00
2875;BME280;1445;52.600;13.328;2023-03-17T00:07:22;101108.44;;;5.56;100.00
2875;BME280;1445;52.600;13.328;2023-03-17T00:09:47;101110.84;;;5.52;100.00
2875;BME280;1445;52.600;13.328;2023-03-17T00:12:13;101107.00;;;5.48;100.00
2875;BME280;1445;52.600;13.328;2023-03-17T00:14:39;101108.06;;;5.47;100.00
2875;BME280;1445;52.600;13.328;2023-03-17T00:17:08;101105.38;;;5.52;100.00
2875;BME280;1445;52.600;13.328;2023-03-17T00:19:34;101097.94;;;5.47;100.00
2875;BME280;1445;52.600;13.328;2023-03-17T00:22:02;101104.25;;;5.48;100.00
2875;BME280;1445;52.600;13.328;2023-03-17T00:24:30;101091.09;;;5.45;100.00
2875;BME280;1445;52.600;13.328;2023-03-17T00:26:55;101082.63;;;5.46;100.00
2875;BME280;1445;52.600;13.328;2023-03-17T00:29:22;101093.00;;;5.44;100.00
2875;BME280;1445;52.600;13.328;2023-03-17T00:31:47;101075.22;;;5.42;100.00
2875;BME280;1445;52.600;13.328;2023-03-17T00:34:15;101078.19;;;5.40;100.00
2875;BME280;1445;52.600;13.328;2023-03-17T00:36:45;101073.28;;;5.42;100.00
2875;BME280;1445;52.600;13.328;2023-03-17T00:39:13;101076.31;;;5.41;100.00
2875;BME280;1445;52.600;13.328;2023-03-17T00:41:39;101072.69;;;5.35;100.00
2875;BME280;1445;52.600;13.328;2023-03-17T00:44:04;101064.75;;;5.34;100.00
2875;BME280;1445;52.600;13.328;2023-03-17T00:46:30;101065.00;;;5.32;100.00
2875;BME280;1445;52.600;13.328;2023-03-17T00:49:28;101051.59;;;5.31;100.00
2875;BME280;1445;52.600;13.328;2023-03-17T00:51:54;101047.78;;;5.32;100.00
2875;BME280;1445;52.600;13.328;2023-03-17T00:54:19;101046.13;;;5.31;100.00
2875;BME280;1445;52.600;13.328;2023-03-17T00:56:46;101035.44;;;5.29;100.00
2875;BME280;1445;52.600;13.328;2023-03-17T00:59:36;101034.09;;;5.32;100.00
2875;BME280;1445;52.600;13.328;2023-03-17T01:02:03;101034.38;;;5.30;100.00
2875;BME280;1445;52.600;13.328;2023-03-17T01:04:31;101035.44;;;5.29;100.00
2875;BME280;1445;52.600;13.328;2023-03-17T01:06:58;101022.06;;;5.33;100.00
2875;BME280;1445;52.600;13.328;2023-03-17T01:09:25;101031.09;;;5.33;100.00
2875;BME280;1445;52.600;13.328;2023-03-17T01:11:51;101021.53;;;5.31;100.00
2875;BME280;1445;52.600;13.328;2023-03-17T01:14:17;101024.00;;;5.32;100.00
2875;BME280;1445;52.600;13.328;2023-03-17T01:16:42;101019.88;;;5.30;100.00
2875;BME280;1445;52.600;13.328;2023-03-17T01:19:11;101008.09;;;5.29;100.00
2875;BME280;1445;52.600;13.328;2023-03-17T01:21:36;101011.41;;;5.31;100.00
2875;BME280;1445;52.600;13.328;2023-03-17T01:24:02;101020.16;;;5.33;100.00
2875;BME280;1445;52.600;13.328;2023-03-17T01:26:28;101009.78;;;5.30;100.00
2875;BME280;1445;52.600;13.328;2023-03-17T01:28:54;101007.88;;;5.31;100.00
2875;BME280;1445;52.600;13.328;2023-03-17T01:31:19;101014.97;;;5.32;100.00
2875;BME280;1445;52.600;13.328;2023-03-17T01:33:45;101014.97;;;5.32;100.00
2875;BME280;1445;52.600;13.328;2023-03-17T01:36:10;101006.78;;;5.32;100.00
2875;BME280;1445;52.600;13.328;2023-03-17T01:38:36;100993.69;;;5.34;100.00
2875;BME280;1445;52.600;13.328;2023-03-17T01:41:02;100993.69;;;5.34;100.00
2875;BME280;1445;52.600;13.328;2023-03-17T01:43:28;100989.84;;;5.35;100.00
2875;BME280;1445;52.600;13.328;2023-03-17T01:49:12;100987.13;;;5.35;100.00
2875;BME280;1445;52.600;13.328;2023-03-17T01:51:44;100973.69;;;5.33;100.00
2875;BME280;1445;52.600;13.328;2023-03-17T01:54:53;100969.59;;;5.31;100.00
2875;BME280;1445;52.600;13.328;2023-03-17T01:57:24;100967.38;;;5.28;100.00
2875;BME280;1445;52.600;13.328;2023-03-17T02:00:14;100966.56;;;5.27;100.00
2875;BME280;1445;52.600;13.328;2023-03-17T02:02:53;100978.31;;;5.28;100.00
2875;BME280;1445;52.600;13.328;2023-03-17T02:05:22;100973.09;;;5.26;100.00
2875;BME280;1445;52.600;13.328;2023-03-17T02:07:48;100967.09;;;5.29;100.00
2875;BME280;1445;52.600;13.328;2023-03-17T02:10:16;100960.22;;;5.21;100.00
2875;BME280;1445;52.600;13.328;2023-03-17T02:12:44;100970.56;;;5.19;100.00
2875;BME280;1445;52.600;13.328;2023-03-17T02:15:11;100951.72;;;5.18;100.00
2875;BME280;1445;52.600;13.328;2023-03-17T02:17:36;100949.25;;;5.16;100.00
2875;BME280;1445;52.600;13.328;2023-03-17T02:22:41;100959.31;;;5.11;100.00
2875;BME280;1445;52.600;13.328;2023-03-17T02:25:07;100945.66;;;5.11;100.00
2875;BME280;1445;52.600;13.328;2023-03-17T02:27:38;100941.31;;;5.15;100.00
2875;BME280;1445;52.600;13.328;2023-03-17T02:30:07;100952.22;;;5.15;100.00
2875;BME280;1445;52.600;13.328;2023-03-17T02:32:35;100949.78;;;5.13;100.00
2875;BME280;1445;52.600;13.328;2023-03-17T02:35:01;100941.00;;;5.11;100.00
2875;BME280;1445;52.600;13.328;2023-03-17T02:37:27;100931.47;;;5.14;100.00
2875;BME280;1445;52.600;13.328;2023-03-17T02:39:52;100936.63;;;5.10;100.00
2875;BME280;1445;52.600;13.328;2023-03-17T02:42:18;100929.25;;;5.11;100.00
2875;BME280;1445;52.600;13.328;2023-03-17T02:44:43;100935.53;;;5.11;100.00
2875;BME280;1445;52.600;13.328;2023-03-17T02:47:09;100925.69;;;5.10;100.00
2875;BME280;1445;52.600;13.328;2023-03-17T02:49:36;100929.75;;;5.08;100.00
2875;BME280;1445;52.600;13.328;2023-03-17T02:52:03;100924.06;;;5.09;100.00
2875;BME280;1445;52.600;13.328;2023-03-17T02:54:30;100920.75;;;5.07;100.00
2875;BME280;1445;52.600;13.328;2023-03-17T02:56:55;100926.78;;;5.09;100.00
2875;BME280;1445;52.600;13.328;2023-03-17T02:59:20;100928.44;;;5.10;100.00
2875;BME280;1445;52.600;13.328;2023-03-17T03:01:46;100921.31;;;5.09;100.00
2875;BME280;1445;52.600;13.328;2023-03-17T03:04:12;100920.75;;;5.07;100.00
2875;BME280;1445;52.600;13.328;2023-03-17T03:06:38;100928.13;;;5.07;100.00
2875;BME280;1445;52.600;13.328;2023-03-17T03:09:04;100918.84;;;5.08;100.00
2875;BME280;1445;52.600;13.328;2023-03-17T03:11:30;100926.25;;;5.12;100.00
2875;BME280;1445;52.600;13.328;2023-03-17T03:13:55;100944.31;;;5.13;100.00
2875;BME280;1445;52.600;13.328;2023-03-17T03:16:21;100945.44;;;5.17;100.00
2875;BME280;1445;52.600;13.328;2023-03-17T03:18:47;100944.59;;;5.17;100.00
2875;BME280;1445;52.600;13.328;2023-03-17T03:21:12;100949.50;;;5.15;100.00
2875;BME280;1445;52.600;13.328;2023-03-17T03:23:38;100954.72;;;5.16;100.00
2875;BME280;1445;52.600;13.328;2023-03-17T03:26:04;100961.53;;;5.14;100.00
2875;BME280;1445;52.600;13.328;2023-03-17T03:28:29;100957.41;;;5.11;100.00
2875;BME280;1445;52.600;13.328;2023-03-17T03:30:55;100948.94;;;5.13;100.00
2875;BME280;1445;52.600;13.328;2023-03-17T03:33:20;100943.50;;;5.13;100.00
2875;BME280;1445;52.600;13.328;2023-03-17T03:35:46;100954.41;;;5.13;100.00
2875;BME280;1445;52.600;13.328;2023-03-17T03:38:12;100946.53;;;5.16;100.00
2875;BME280;1445;52.600;13.328;2023-03-17T03:40:37;100939.38;;;5.15;100.00
2875;BME280;1445;52.600;13.328;2023-03-17T03:43:03;100942.41;;;5.14;100.00
2875;BME280;1445;52.600;13.328;2023-03-17T03:45:29;100943.50;;;5.13;100.00
2875;BME280;1445;52.600;13.328;2023-03-17T03:47:55;100943.22;;;5.14;100.00
2875;BME280;1445;52.600;13.328;2023-03-17T03:50:21;100936.66;;;5.15;100.00
2875;BME280;1445;52.600;13.328;2023-03-17T03:52:46;100938.53;;;5.10;100.00
2875;BME280;1445;52.600;13.328;2023-03-17T03:55:12;100936.03;;;5.08;100.00
2875;BME280;1445;52.600;13.328;2023-03-17T03:57:37;100934.41;;;5.07;100.00
2875;BME280;1445;52.600;13.328;2023-03-17T04:00:04;100936.53;;;5.00;100.00
2875;BME280;1445;52.600;13.328;2023-03-17T04:02:30;100937.66;;;5.04;100.00
2875;BME280;1445;52.600;13.328;2023-03-17T04:04:56;100945.03;;;5.03;100.00
2875;BME280;1445;52.600;13.328;2023-03-17T04:07:22;100940.91;;;5.01;100.00
2875;BME280;1445;52.600;13.328;2023-03-17T04:09:47;100930.81;;;5.01;100.00
2875;BME280;1445;52.600;13.328;2023-03-17T04:12:16;100920.41;;;4.98;100.00
2875;BME280;1445;52.600;13.328;2023-03-17T04:14:42;100934.31;;;4.97;100.00
2875;BME280;1445;52.600;13.328;2023-03-17T04:17:12;100922.56;;;4.96;100.00
2875;BME280;1445;52.600;13.328;2023-03-17T04:19:38;100926.09;;;4.92;100.00
2875;BME280;1445;52.600;13.328;2023-03-17T04:22:05;100918.97;;;4.91;100.00
2875;BME280;1445;52.600;13.328;2023-03-17T04:24:31;100918.97;;;4.91;100.00
2875;BME280;1445;52.600;13.328;2023-03-17T04:26:57;100908.59;;;4.93;100.00
2875;BME280;1445;52.600;13.328;2023-03-17T04:29:22;100898.78;;;4.92;100.00
2875;BME280;1445;52.600;13.328;2023-03-17T04:31:48;100897.09;;;4.91;100.00
2875;BME280;1445;52.600;13.328;2023-03-17T04:34:15;100893.81;;;4.89;100.00
2875;BME280;1445;52.600;13.328;2023-03-17T04:36:42;100900.13;;;4.89;100.00
2875;BME280;1445;52.600;13.328;2023-03-17T04:39:08;100897.09;;;4.91;100.00
2875;BME280;1445;52.600;13.328;2023-03-17T04:41:34;100905.06;;;4.92;100.00
2875;BME280;1445;52.600;13.328;2023-03-17T04:43:59;100917.31;;;4.90;100.00
2875;BME280;1445;52.600;13.328;2023-03-17T04:46:24;100905.00;;;4.87;100.00
2875;BME280;1445;52.600;13.328;2023-03-17T04:48:50;100901.97;;;4.84;100.00
2875;BME280;1445;52.600;13.328;2023-03-17T04:51:16;100904.69;;;4.84;100.00
2875;BME280;1445;52.600;13.328;2023-03-17T04:53:41;100893.75;;;4.84;100.00
2875;BME280;1445;52.600;13.328;2023-03-17T04:56:07;100891.63;;;4.86;100.00
2875;BME280;1445;52.600;13.328;2023-03-17T04:58:32;100885.28;;;4.80;100.00
2875;BME280;1445;52.600;13.328;2023-03-17T05:00:58;100889.13;;;4.84;100.00
2875;BME280;1445;52.600;13.328;2023-03-17T05:03:23;100894.88;;;4.88;100.00
2875;BME280;1445;52.600;13.328;2023-03-17T05:05:50;100900.91;;;4.85;100.00
2875;BME280;1445;52.600;13.328;2023-03-17T05:08:16;100901.97;;;4.84;100.00
2875;BME280;1445;52.600;13.328;2023-03-17T05:10:41;100892.94;;;4.83;100.00
2875;BME280;1445;52.600;13.328;2023-03-17T05:13:07;100879.59;;;4.87;100.00
2875;BME280;1445;52.600;13.328;2023-03-17T05:15:32;100857.75;;;4.87;100.00
2875;BME280;1445;52.600;13.328;2023-03-17T05:17:57;100870.88;;;4.90;100.00
2875;BME280;1445;52.600;13.328;2023-03-17T05:20:23;100887.28;;;4.90;100.00
2875;BME280;1445;52.600;13.328;2023-03-17T05:22:49;100894.38;;;4.91;100.00
2875;BME280;1445;52.600;13.328;2023-03-17T05:25:14;100897.91;;;4.91;100.00
2875;BME280;1445;52.600;13.328;2023-03-17T05:27:41;100898.19;;;4.90;100.00
2875;BME280;1445;52.600;13.328;2023-03-17T05:30:08;100891.09;;;4.89;100.00
2875;BME280;1445;52.600;13.328;2023-03-17T05:32:33;100879.06;;;4.90;100.00
2875;BME280;1445;52.600;13.328;2023-03-17T05:34:59;100881.53;;;4.91;100.00
2875;BME280;1445;52.600;13.328;2023-03-17T05:37:25;100868.16;;;4.90;100.00
2875;BME280;1445;52.600;13.328;2023-03-17T05:39:50;100877.69;;;4.87;100.00
2875;BME280;1445;52.600;13.328;2023-03-17T05:42:18;100882.91;;;4.89;100.00
2875;BME280;1445;52.600;13.328;2023-03-17T05:44:43;100887.00;;;4.91;100.00
2875;BME280;1445;52.600;13.328;2023-03-17T05:47:09;100889.19;;;4.89;100.00
2875;BME280;1445;52.600;13.328;2023-03-17T05:49:35;100882.38;;;4.92;100.00
2875;BME280;1445;52.600;13.328;2023-03-17T05:52:01;100893.34;;;4.97;100.00
2875;BME280;1445;52.600;13.328;2023-03-17T05:54:27;100899.38;;;4.99;100.00
2875;BME280;1445;52.600;13.328;2023-03-17T05:56:52;100887.09;;;5.01;100.00
2875;BME280;1445;52.600;13.328;2023-03-17T05:59:17;100885.75;;;5.04;100.00
2875;BME280;1445;52.600;13.328;2023-03-17T06:01:43;100899.16;;;5.06;100.00
2875;BME280;1445;52.600;13.328;2023-03-17T06:04:09;100873.47;;;5.07;100.00
2875;BME280;1445;52.600;13.328;2023-03-17T06:06:34;100874.88;;;5.09;100.00
2875;BME280;1445;52.600;13.328;2023-03-17T06:09:00;100861.22;;;5.09;100.00
2875;BME280;1445;52.600;13.328;2023-03-17T06:11:26;100859.59;;;5.13;100.00
2875;BME280;1445;52.600;13.328;2023-03-17T06:13:51;100852.22;;;5.14;100.00
2875;BME280;1445;52.600;13.328;2023-03-17T06:16:17;100848.69;;;5.18;100.00
2875;BME280;1445;52.600;13.328;2023-03-17T06:18:43;100862.09;;;5.20;100.00
2875;BME280;1445;52.600;13.328;2023-03-17T06:21:10;100863.22;;;5.24;100.00
2875;BME280;1445;52.600;13.328;2023-03-17T06:23:36;100860.50;;;5.29;100.00
2875;BME280;1445;52.600;13.328;2023-03-17T06:26:01;100857.53;;;5.31;100.00
2875;BME280;1445;52.600;13.328;2023-03-17T06:28:27;100857.28;;;5.37;100.00
2875;BME280;1445;52.600;13.328;2023-03-17T06:30:52;100856.75;;;5.40;100.00
2875;BME280;1445;52.600;13.328;2023-03-17T06:33:18;100855.41;;;5.43;100.00
2875;BME280;1445;52.600;13.328;2023-03-17T06:35:43;100866.63;;;5.41;100.00
2875;BME280;1445;52.600;13.328;2023-03-17T06:38:09;100854.06;;;5.45;100.00
2875;BME280;1445;52.600;13.328;2023-03-17T06:40:34;100852.13;;;5.46;100.00
2875;BME280;1445;52.600;13.328;2023-03-17T06:43:00;100844.50;;;5.48;100.00
2875;BME280;1445;52.600;13.328;2023-03-17T06:45:26;100846.69;;;5.46;100.00
2875;BME280;1445;52.600;13.328;2023-03-17T06:47:52;100852.72;;;5.48;100.00
2875;BME280;1445;52.600;13.328;2023-03-17T06:50:17;100852.44;;;5.49;100.00
2875;BME280;1445;52.600;13.328;2023-03-17T06:52:43;100853.59;;;5.59;100.00
2875;BME280;1445;52.600;13.328;2023-03-17T06:55:09;100850.63;;;5.75;100.00
2875;BME280;1445;52.600;13.328;2023-03-17T06:57:35;100845.78;;;5.83;100.00
2875;BME280;1445;52.600;13.328;2023-03-17T07:00:02;100834.53;;;5.79;100.00
2875;BME280;1445;52.600;13.328;2023-03-17T07:02:31;100843.56;;;5.85;100.00
2875;BME280;1445;52.600;13.328;2023-03-17T07:04:56;100841.91;;;5.79;100.00
2875;BME280;1445;52.600;13.328;2023-03-17T07:07:22;100833.44;;;5.80;100.00
2875;BME280;1445;52.600;13.328;2023-03-17T07:09:49;100848.75;;;5.81;100.00
2875;BME280;1445;52.600;13.328;2023-03-17T07:12:15;100859.47;;;5.88;100.00
2875;BME280;1445;52.600;13.328;2023-03-17T07:14:41;100837.81;;;5.81;100.00
2875;BME280;1445;52.600;13.328;2023-03-17T07:17:06;100838.47;;;5.93;100.00
2875;BME280;1445;52.600;13.328;2023-03-17T07:19:32;100862.28;;;5.98;100.00
2875;BME280;1445;52.600;13.328;2023-03-17T07:21:59;100843.66;;;5.95;100.00
2875;BME280;1445;52.600;13.328;2023-03-17T07:24:25;100847.25;;;6.01;100.00
2875;BME280;1445;52.600;13.328;2023-03-17T07:26:51;100854.09;;;6.13;100.00
2875;BME280;1445;52.600;13.328;2023-03-17T07:29:16;100860.72;;;6.33;99.21
2875;BME280;1445;52.600;13.328;2023-03-17T07:31:43;100825.97;;;6.43;97.11
2875;BME280;1445;52.600;13.328;2023-03-17T07:34:09;100812.03;;;6.50;93.31
2875;BME280;1445;52.600;13.328;2023-03-17T07:36:35;100810.06;;;6.45;93.32
2875;BME280;1445;52.600;13.328;2023-03-17T07:39:02;100819.41;;;6.60;93.18
2875;BME280;1445;52.600;13.328;2023-03-17T07:41:28;100813.38;;;6.48;89.12
2875;BME280;1445;52.600;13.328;2023-03-17T07:43:54;100792.84;;;6.50;89.49
2875;BME280;1445;52.600;13.328;2023-03-17T07:46:20;100816.13;;;6.58;89.60
2875;BME280;1445;52.600;13.328;2023-03-17T07:48:46;100818.59;;;6.59;88.88
2875;BME280;1445;52.600;13.328;2023-03-17T07:51:13;100847.34;;;6.62;88.51
2875;BME280;1445;52.600;13.328;2023-03-17T07:53:39;100844.91;;;6.60;88.37
2875;BME280;1445;52.600;13.328;2023-03-17T07:56:06;100842.72;;;6.67;89.21
2875;BME280;1445;52.600;13.328;2023-03-17T07:58:32;100821.34;;;6.85;86.32
2875;BME280;1445;52.600;13.328;2023-03-17T08:00:57;100832.56;;;6.99;84.26
2875;BME280;1445;52.600;13.328;2023-03-17T08:03:23;100831.75;;;7.03;84.52
2875;BME280;1445;52.600;13.328;2023-03-17T08:05:54;100823.75;;;7.22;81.99
2875;BME280;1445;52.600;13.328;2023-03-17T08:08:23;100830.88;;;7.28;78.58
2875;BME280;1445;52.600;13.328;2023-03-17T08:10:49;100825.66;;;7.32;75.35
2875;BME280;1445;52.600;13.328;2023-03-17T08:13:15;100814.91;;;7.40;74.64
2875;BME280;1445;52.600;13.328;2023-03-17T08:15:40;100808.59;;;7.55;74.24
2875;BME280;1445;52.600;13.328;2023-03-17T08:18:06;100811.56;;;7.69;72.66
2875;BME280;1445;52.600;13.328;2023-03-17T08:20:32;100804.41;;;7.73;70.14
2875;BME280;1445;52.600;13.328;2023-03-17T08:22:58;100804.09;;;7.80;70.64
2875;BME280;1445;52.600;13.328;2023-03-17T08:25:25;100797.41;;;7.96;69.47
2875;BME280;1445;52.600;13.328;2023-03-17T08:27:50;100787.25;;;8.02;67.55
2875;BME280;1445;52.600;13.328;2023-03-17T08:30:16;100782.03;;;8.00;65.92
2875;BME280;1445;52.600;13.328;2023-03-17T08:32:42;100792.47;;;7.98;65.42
2875;BME280;1445;52.600;13.328;2023-03-17T08:35:13;100766.41;;;7.96;65.39
2875;BME280;1445;52.600;13.328;2023-03-17T08:37:41;100784.94;;;8.14;66.80
2875;BME280;1445;52.600;13.328;2023-03-17T08:40:09;100787.78;;;8.04;64.02
2875;BME280;1445;52.600;13.328;2023-03-17T08:42:35;100789.94;;;8.12;65.80
2875;BME280;1445;52.600;13.328;2023-03-17T08:45:02;100790.19;;;8.16;65.17
2875;BME280;1445;52.600;13.328;2023-03-17T08:47:28;100785.53;;;8.11;64.58
2875;BME280;1445;52.600;13.328;2023-03-17T08:49:54;100781.13;;;8.15;64.91
2875;BME280;1445;52.600;13.328;2023-03-17T08:52:20;100769.06;;;8.11;65.01
2875;BME280;1445;52.600;13.328;2023-03-17T08:54:46;100781.06;;;8.20;64.26
2875;BME280;1445;52.600;13.328;2023-03-17T08:57:13;100768.34;;;8.34;64.53
2875;BME280;1445;52.600;13.328;2023-03-17T08:59:38;100778.56;;;8.24;64.53
2875;BME280;1445;52.600;13.328;2023-03-17T09:02:04;100763.16;;;8.33;63.20
2875;BME280;1445;52.600;13.328;2023-03-17T09:04:29;100775.19;;;8.42;64.81
2875;BME280;1445;52.600;13.328;2023-03-17T09:06:55;100763.91;;;8.44;65.02
2875;BME280;1445;52.600;13.328;2023-03-17T09:09:21;100752.94;;;8.44;63.72
2875;BME280;1445;52.600;13.328;2023-03-17T09:11:48;100750.94;;;8.49;64.15
2875;BME280;1445;52.600;13.328;2023-03-17T09:14:13;100749.47;;;8.62;63.55
2875;BME280;1445;52.600;13.328;2023-03-17T09:16:39;100749.69;;;8.95;62.58
2875;BME280;1445;52.600;13.328;2023-03-17T09:19:04;100775.38;;;8.85;59.53
2875;BME280;1445;52.600;13.328;2023-03-17T09:21:30;100750.66;;;8.85;60.43
2875;BME280;1445;52.600;13.328;2023-03-17T09:23:56;100753.63;;;8.89;59.21
2875;BME280;1445;52.600;13.328;2023-03-17T09:26:21;100764.47;;;9.04;58.26
2875;BME280;1445;52.600;13.328;2023-03-17T09:28:49;100762.97;;;9.17;59.52
2875;BME280;1445;52.600;13.328;2023-03-17T09:31:14;100756.81;;;9.25;58.78
2875;BME280;1445;52.600;13.328;2023-03-17T09:33:40;100752.25;;;9.39;58.02
2875;BME280;1445;52.600;13.328;2023-03-17T09:36:07;100751.75;;;9.37;56.24
2875;BME280;1445;52.600;13.328;2023-03-17T09:38:33;100755.22;;;9.43;56.02
2875;BME280;1445;52.600;13.328;2023-03-17T09:51:58;100745.31;;;9.66;56.64
2875;BME280;1445;52.600;13.328;2023-03-17T09:54:33;100758.16;;;9.94;55.93
2875;BME280;1445;52.600;13.328;2023-03-17T09:57:09;100745.63;;;9.83;54.76
2875;BME280;1445;52.600;13.328;2023-03-17T09:59:42;100749.16;;;10.08;55.56
2875;BME280;1445;52.600;13.328;2023-03-17T10:02:27;100732.06;;;10.24;53.37
2875;BME280;1445;52.600;13.328;2023-03-17T10:04:54;100729.22;;;10.48;54.43
2875;BME280;1445;52.600;13.328;2023-03-17T10:07:36;100734.47;;;10.96;53.15
2875;BME280;1445;52.600;13.328;2023-03-17T10:10:14;100733.88;;;11.13;50.72
2875;BME280;1445;52.600;13.328;2023-03-17T10:13:41;100726.19;;;11.10;49.18
2875;BME280;1445;52.600;13.328;2023-03-17T10:15:51;100725.47;;;11.32;48.98
2875;BME280;1445;52.600;13.328;2023-03-17T10:18:23;100729.47;;;11.40;47.60
2875;BME280;1445;52.600;13.328;2023-03-17T10:20:57;100745.53;;;11.52;47.88
2875;BME280;1445;52.600;13.328;2023-03-17T10:23:27;100733.94;;;11.77;47.10
2875;BME280;1445;52.600;13.328;2023-03-17T10:25:55;100749.56;;;11.96;46.55
2875;BME280;1445;52.600;13.328;2023-03-17T10:28:30;100727.84;;;12.03;46.61
2875;BME280;1445;52.600;13.328;2023-03-17T10:31:20;100727.81;;;12.16;45.92
2875;BME280;1445;52.600;13.328;2023-03-17T10:33:52;100723.97;;;12.26;46.03
2875;BME280;1445;52.600;13.328;2023-03-17T10:36:37;100716.69;;;12.53;45.45
2875;BME280;1445;52.600;13.328;2023-03-17T10:39:04;100712.50;;;12.86;44.85
2875;BME280;1445;52.600;13.328;2023-03-17T10:41:37;100709.69;;;12.78;43.77
2875;BME280;1445;52.600;13.328;2023-03-17T10:44:07;100718.38;;;12.62;43.20
2875;BME280;1445;52.600;13.328;2023-03-17T10:46:34;100717.22;;;12.63;44.11
2875;BME280;1445;52.600;13.328;2023-03-17T10:49:07;100715.78;;;12.88;43.45
2875;BME280;1445;52.600;13.328;2023-03-17T10:51:35;100706.22;;;13.03;43.11
2875;BME280;1445;52.600;13.328;2023-03-17T10:54:16;100721.31;;;12.88;43.75
2875;BME280;1445;52.600;13.328;2023-03-17T10:56:46;100700.72;;;12.81;42.76
2875;BME280;1445;52.600;13.328;2023-03-17T10:59:29;100700.78;;;12.89;43.08
2875;BME280;1445;52.600;13.328;2023-03-17T11:01:59;100694.47;;;12.98;42.39
2875;BME280;1445;52.600;13.328;2023-03-17T11:04:35;100695.59;;;13.28;42.64
2875;BME280;1445;52.600;13.328;2023-03-17T11:09:39;100689.94;;;13.50;41.97
2875;BME280;1445;52.600;13.328;2023-03-17T11:12:18;100674.16;;;13.68;41.00
2875;BME280;1445;52.600;13.328;2023-03-17T11:14:46;100680.06;;;13.84;40.36
2875;BME280;1445;52.600;13.328;2023-03-17T11:17:18;100691.47;;;13.74;40.41
2875;BME280;1445;52.600;13.328;2023-03-17T11:22:51;100679.41;;;13.96;40.38
2875;BME280;1445;52.600;13.328;2023-03-17T11:25:19;100678.09;;;14.11;39.91
2875;BME280;1445;52.600;13.328;2023-03-17T11:28:05;100679.22;;;14.36;39.53
2875;BME280;1445;52.600;13.328;2023-03-17T11:38:59;100662.66;;;14.74;37.77
2875;BME280;1445;52.600;13.328;2023-03-17T11:41:43;100660.41;;;15.06;36.75
2875;BME280;1445;52.600;13.328;2023-03-17T11:44:17;100654.66;;;15.40;36.75
2875;BME280;1445;52.600;13.328;2023-03-17T11:46:54;100652.28;;;16.02;36.53
2875;BME280;1445;52.600;13.328;2023-03-17T11:49:25;100655.84;;;15.69;34.86
2875;BME280;1445;52.600;13.328;2023-03-17T11:54:42;100645.03;;;15.67;35.66
2875;BME280;1445;52.600;13.328;2023-03-17T11:57:20;100645.84;;;15.68;35.55
2875;BME280;1445;52.600;13.328;2023-03-17T12:00:04;100636.91;;;15.62;34.50
2875;BME280;1445;52.600;13.328;2023-03-17T12:02:39;100632.16;;;15.63;35.09
2875;BME280;1445;52.600;13.328;2023-03-17T12:05:14;100650.25;;;15.48;34.65
2875;BME280;1445;52.600;13.328;2023-03-17T12:07:48;100637.44;;;15.56;35.01
2875;BME280;1445;52.600;13.328;2023-03-17T12:10:36;100628.13;;;15.31;35.20
2875;BME280;1445;52.600;13.328;2023-03-17T12:15:42;100618.03;;;15.47;35.36
2875;BME280;1445;52.600;13.328;2023-03-17T12:18:27;100627.41;;;15.34;35.56
2875;BME280;1445;52.600;13.328;2023-03-17T12:21:07;100622.66;;;15.13;36.62
2875;BME280;1445;52.600;13.328;2023-03-17T12:23:40;100630.78;;;15.18;36.84
2875;BME280;1445;52.600;13.328;2023-03-17T12:28:41;100620.63;;;15.52;36.60
2875;BME280;1445;52.600;13.328;2023-03-17T12:31:13;100617.75;;;15.61;36.64
2875;BME280;1445;52.600;13.328;2023-03-17T12:36:29;100606.66;;;14.80;36.91
2875;BME280;1445;52.600;13.328;2023-03-17T12:39:17;100603.38;;;15.17;37.41
2875;BME280;1445;52.600;13.328;2023-03-17T12:53:12;100576.13;;;14.80;37.36
2875;BME280;1445;52.600;13.328;2023-03-17T12:55:45;100571.63;;;14.97;37.98
2875;BME280;1445;52.600;13.328;2023-03-17T12:58:21;100575.47;;;15.13;37.63
2875;BME280;1445;52.600;13.328;2023-03-17T13:01:05;100580.28;;;15.25;37.07
2875;BME280;1445;52.600;13.328;2023-03-17T13:03:33;100588.00;;;14.90;37.55
2875;BME280;1445;52.600;13.328;2023-03-17T13:06:05;100584.84;;;15.00;37.50
2875;BME280;1445;52.600;13.328;2023-03-17T13:08:39;100571.00;;;15.21;37.28
2875;BME280;1445;52.600;13.328;2023-03-17T13:16:37;100576.88;;;15.19;37.25
2875;BME280;1445;52.600;13.328;2023-03-17T13:24:50;100567.84;;;15.52;36.75
2875;BME280;1445;52.600;13.328;2023-03-17T13:29:54;100549.09;;;15.61;36.31
2875;BME280;1445;52.600;13.328;2023-03-17T13:35:33;100559.22;;;15.87;36.55
2875;BME280;1445;52.600;13.328;2023-03-17T13:46:27;100567.59;;;15.66;36.91
2875;BME280;1445;52.600;13.328;2023-03-17T13:48:56;100559.41;;;15.61;36.97
2875;BME280;1445;52.600;13.328;2023-03-17T13:51:30;100568.84;;;15.47;36.99
2875;BME280;1445;52.600;13.328;2023-03-17T13:56:48;100573.91;;;15.24;37.94
2875;BME280;1445;52.600;13.328;2023-03-17T13:59:18;100576.31;;;15.35;37.96
2875;BME280;1445;52.600;13.328;2023-03-17T14:04:45;100558.91;;;15.67;37.46
2875;BME280;1445;52.600;13.328;2023-03-17T14:07:17;100560.53;;;16.02;37.59
2875;BME280;1445;52.600;13.328;2023-03-17T14:09:44;100576.66;;;16.08;37.39
2875;BME280;1445;52.600;13.328;2023-03-17T14:12:30;100576.97;;;16.40;36.55
2875;BME280;1445;52.600;13.328;2023-03-17T14:15:31;100568.88;;;16.59;36.67
2875;BME280;1445;52.600;13.328;2023-03-17T14:18:02;100569.47;;;16.65;36.64
2875;BME280;1445;52.600;13.328;2023-03-17T14:20:28;100553.06;;;16.39;36.19
2875;BME280;1445;52.600;13.328;2023-03-17T14:23:05;100552.38;;;16.30;36.45
2875;BME280;1445;52.600;13.328;2023-03-17T14:25:35;100562.22;;;16.15;36.50
2875;BME280;1445;52.600;13.328;2023-03-17T14:28:07;100551.13;;;15.94;37.26
2875;BME280;1445;52.600;13.328;2023-03-17T14:30:36;100521.38;;;16.07;37.52
2875;BME280;1445;52.600;13.328;2023-03-17T14:35:38;100504.09;;;15.89;37.36